METAR Data
IDs: Format: Raw Decoded Include TAF

Data at: 2057 UTC 25 Oct 2021

EHWO 252025Z AUTO 21006KT 180V250 9999 SCT150 12/11 Q1017 BLU